createdAt,value
2022-08-01T00:00:14.161Z,15.31
2022-08-01T00:02:42.986Z,14.97
2022-08-01T00:05:12.018Z,14.88
2022-08-01T00:07:41.455Z,14.68
2022-08-01T00:10:12.721Z,14.88
2022-08-01T00:12:42.025Z,14.97
2022-08-01T00:15:14.402Z,15.12
2022-08-01T00:17:43.806Z,15.22
2022-08-01T00:20:16.830Z,15.03
2022-08-01T00:22:45.376Z,15.24
2022-08-01T00:25:13.829Z,15.08
2022-08-01T00:27:42.309Z,14.95
2022-08-01T00:30:14.594Z,14.90
2022-08-01T00:32:45.334Z,14.94
2022-08-01T00:35:14.515Z,15.01
2022-08-01T00:37:43.079Z,15.07
2022-08-01T00:40:12.176Z,15.21
2022-08-01T00:42:43.649Z,14.93
2022-08-01T00:45:13.005Z,14.91
2022-08-01T00:47:41.534Z,14.88
2022-08-01T00:50:13.100Z,14.89
2022-08-01T00:52:42.675Z,14.86
2022-08-01T00:55:15.039Z,14.96
2022-08-01T00:58:02.427Z,14.97
2022-08-01T01:00:53.146Z,14.94
2022-08-01T01:03:49.397Z,14.85
2022-08-01T01:06:34.934Z,14.69
2022-08-01T01:09:25.658Z,14.76
2022-08-01T01:12:04.275Z,14.63
2022-08-01T01:14:39.114Z,14.68
2022-08-01T01:17:10.285Z,14.65
2022-08-01T01:19:44.500Z,14.66
2022-08-01T01:22:33.683Z,14.65
2022-08-01T01:25:27.131Z,14.60
2022-08-01T01:28:09.530Z,14.62
2022-08-01T01:30:42.101Z,14.59
2022-08-01T01:33:13.425Z,14.48
2022-08-01T01:35:47.350Z,14.48
2022-08-01T01:38:20.122Z,14.44
2022-08-01T01:40:50.168Z,14.43
2022-08-01T01:43:20.030Z,14.53
2022-08-01T01:45:50.976Z,14.47
2022-08-01T01:48:23.721Z,14.50
2022-08-01T01:50:53.752Z,14.45
2022-08-01T01:53:24.705Z,14.31
2022-08-01T01:55:56.115Z,14.21
2022-08-01T01:58:26.697Z,14.18
2022-08-01T02:00:59.135Z,14.26
2022-08-01T02:03:33.489Z,14.11
2022-08-01T02:06:03.966Z,14.16
2022-08-01T02:08:34.134Z,14.16
2022-08-01T02:11:23.407Z,14.13
2022-08-01T02:13:58.114Z,14.18
2022-08-01T02:16:34.011Z,14.16
2022-08-01T02:19:02.726Z,14.20
2022-08-01T02:21:35.037Z,14.14
2022-08-01T02:24:12.015Z,14.14
2022-08-01T02:26:43.729Z,14.16
2022-08-01T02:29:19.510Z,14.17
2022-08-01T02:31:51.968Z,14.27
2022-08-01T02:34:22.317Z,14.27
2022-08-01T02:36:52.469Z,14.30
2022-08-01T02:39:23.836Z,14.26
2022-08-01T02:41:59.675Z,14.19
2022-08-01T02:44:32.919Z,14.18
2022-08-01T02:47:04.520Z,14.13
2022-08-01T02:49:35.665Z,14.24
2022-08-01T02:52:07.882Z,14.22
2022-08-01T02:54:38.438Z,14.15
2022-08-01T02:57:08.908Z,14.06
2022-08-01T02:59:42.412Z,14.09
2022-08-01T03:02:13.476Z,14.12
2022-08-01T03:04:43.981Z,14.16
2022-08-01T03:07:13.926Z,14.15
2022-08-01T03:09:45.836Z,14.13
2022-08-01T03:12:20.046Z,14.12
2022-08-01T03:14:51.820Z,14.14
2022-08-01T03:17:25.997Z,14.12
2022-08-01T03:19:55.857Z,14.16
2022-08-01T03:22:27.239Z,14.11
2022-08-01T03:24:58.429Z,14.13
2022-08-01T03:27:27.979Z,14.10
2022-08-01T03:29:58.900Z,14.05
2022-08-01T03:32:30.876Z,14.09
2022-08-01T03:34:59.759Z,14.03
2022-08-01T03:37:30.661Z,13.93
2022-08-01T03:40:01.129Z,14.03
2022-08-01T03:42:34.767Z,13.97
2022-08-01T03:45:13.361Z,14.05
2022-08-01T03:47:46.828Z,14.01
2022-08-01T03:50:18.968Z,14.16
2022-08-01T03:52:49.026Z,14.14
2022-08-01T03:55:19.309Z,14.00
2022-08-01T03:57:49.528Z,14.05
2022-08-01T04:00:19.667Z,14.00
2022-08-01T04:02:51.096Z,14.04
2022-08-01T04:05:20.479Z,14.02
2022-08-01T04:07:56.350Z,13.98
2022-08-01T04:10:25.396Z,13.97
2022-08-01T04:12:54.624Z,13.84
2022-08-01T04:15:25.042Z,13.89
2022-08-01T04:17:55.381Z,13.90
2022-08-01T04:20:24.039Z,13.91
2022-08-01T04:22:53.519Z,13.85
2022-08-01T04:25:27.607Z,13.87
2022-08-01T04:27:57.402Z,13.82
2022-08-01T04:30:30.976Z,13.85
2022-08-01T04:33:03.564Z,13.82
2022-08-01T04:36:01.706Z,13.76
2022-08-01T04:38:24.799Z,13.76
2022-08-01T04:40:54.823Z,13.83
2022-08-01T04:43:24.198Z,13.75
2022-08-01T04:45:54.177Z,13.70
2022-08-01T04:48:26.626Z,13.74
2022-08-01T04:50:56.340Z,13.80
2022-08-01T04:53:24.832Z,13.78
2022-08-01T04:55:53.660Z,13.80
2022-08-01T04:58:22.370Z,13.81
2022-08-01T05:00:51.113Z,13.77
2022-08-01T05:03:19.813Z,13.66
2022-08-01T05:05:50.137Z,13.74
2022-08-01T05:08:18.712Z,13.70
2022-08-01T05:10:47.466Z,13.66
2022-08-01T05:13:16.720Z,13.66
2022-08-01T05:15:45.342Z,13.68
2022-08-01T05:18:14.060Z,13.77
2022-08-01T05:20:43.862Z,13.77
2022-08-01T05:23:22.581Z,13.75
2022-08-01T05:26:02.843Z,13.77
2022-08-01T05:28:31.476Z,13.82
2022-08-01T05:31:00.200Z,13.80
2022-08-01T05:33:28.985Z,13.79
2022-08-01T05:35:57.702Z,13.87
2022-08-01T05:38:27.862Z,13.95
2022-08-01T05:40:56.567Z,13.96
2022-08-01T05:43:28.747Z,13.88
2022-08-01T05:45:59.486Z,13.97
2022-08-01T05:48:28.260Z,13.94
2022-08-01T05:50:58.898Z,13.93
2022-08-01T05:53:29.522Z,14.04
2022-08-01T05:55:58.402Z,14.07
2022-08-01T05:58:26.943Z,13.95
2022-08-01T06:00:55.782Z,13.90
2022-08-01T06:03:25.894Z,13.95
2022-08-01T06:05:56.182Z,13.97
2022-08-01T06:08:25.543Z,14.02
2022-08-01T06:10:59.483Z,13.95
2022-08-01T06:13:29.223Z,13.98
2022-08-01T06:16:01.243Z,14.01
2022-08-01T06:18:30.109Z,14.08
2022-08-01T06:20:58.782Z,14.05
2022-08-01T06:23:31.910Z,13.97
2022-08-01T06:26:02.749Z,13.98
2022-08-01T06:28:31.472Z,13.96
2022-08-01T06:31:00.991Z,13.96
2022-08-01T06:33:30.079Z,13.91
2022-08-01T06:35:58.982Z,13.91
2022-08-01T06:38:27.530Z,13.85
2022-08-01T06:40:56.230Z,13.89
2022-08-01T06:43:26.346Z,13.93
2022-08-01T06:45:55.045Z,13.96
2022-08-01T06:48:23.935Z,13.98
2022-08-01T06:51:09.106Z,13.94
2022-08-01T06:53:38.862Z,13.89
2022-08-01T06:56:10.117Z,13.88
2022-08-01T06:58:40.387Z,13.89
2022-08-01T07:01:09.467Z,13.85
2022-08-01T07:03:52.366Z,13.86
2022-08-01T07:06:25.031Z,13.83
2022-08-01T07:08:53.828Z,13.83
2022-08-01T07:11:22.544Z,13.76
2022-08-01T07:13:53.058Z,13.80
2022-08-01T07:16:21.978Z,13.86
2022-08-01T07:18:50.567Z,13.88
2022-08-01T07:21:39.943Z,13.87
2022-08-01T07:24:13.282Z,13.90
2022-08-01T07:26:52.395Z,13.86
2022-08-01T07:29:25.415Z,13.80
2022-08-01T07:31:55.437Z,13.81
2022-08-01T07:34:24.480Z,13.86
2022-08-01T07:36:53.278Z,13.83
2022-08-01T07:39:22.377Z,13.90
2022-08-01T07:42:06.845Z,13.90
2022-08-01T07:44:39.079Z,13.87
2022-08-01T07:47:08.755Z,13.88
2022-08-01T07:49:40.649Z,13.86
2022-08-01T07:52:09.998Z,13.87
2022-08-01T07:54:38.792Z,13.85
2022-08-01T07:57:08.315Z,13.80
2022-08-01T07:59:39.478Z,13.89
2022-08-01T08:02:08.629Z,13.84
2022-08-01T08:04:37.777Z,13.90
2022-08-01T08:07:06.693Z,13.90
2022-08-01T08:09:37.138Z,13.94
2022-08-01T08:12:08.562Z,13.95
2022-08-01T08:14:37.740Z,13.98
2022-08-01T08:17:08.178Z,14.12
2022-08-01T08:19:39.261Z,14.06
2022-08-01T08:22:09.230Z,14.01
2022-08-01T08:24:46.094Z,14.01
2022-08-01T08:27:15.789Z,14.03
2022-08-01T08:29:45.197Z,14.04
2022-08-01T08:32:15.657Z,14.04
2022-08-01T08:34:45.098Z,14.16
2022-08-01T08:37:14.104Z,14.13
2022-08-01T08:39:42.938Z,14.14
2022-08-01T08:42:13.059Z,14.14
2022-08-01T08:44:44.695Z,14.27
2022-08-01T08:47:20.604Z,14.29
2022-08-01T08:49:50.584Z,14.17
2022-08-01T08:52:21.319Z,14.16
2022-08-01T08:54:50.655Z,14.29
2022-08-01T08:57:21.982Z,14.29
2022-08-01T08:59:53.140Z,14.51
2022-08-01T09:02:23.658Z,14.44
2022-08-01T09:04:53.700Z,14.55
2022-08-01T09:07:22.303Z,14.57
2022-08-01T09:09:51.551Z,14.53
2022-08-01T09:12:21.596Z,14.54
2022-08-01T09:14:54.649Z,14.51
2022-08-01T09:17:25.397Z,14.64
2022-08-01T09:19:55.745Z,14.60
2022-08-01T09:22:27.406Z,14.58
2022-08-01T09:25:05.183Z,14.65
2022-08-01T09:27:34.942Z,14.59
2022-08-01T09:30:12.664Z,14.62
2022-08-01T09:32:58.368Z,14.66
2022-08-01T09:35:30.839Z,14.59
2022-08-01T09:38:17.503Z,14.55
2022-08-01T09:41:00.123Z,14.55
2022-08-01T09:43:32.687Z,14.56
2022-08-01T09:46:12.897Z,14.64
2022-08-01T09:48:58.016Z,14.64
2022-08-01T09:51:59.646Z,14.62
2022-08-01T09:54:35.370Z,14.68
2022-08-01T09:57:15.565Z,14.63
2022-08-01T09:59:58.167Z,14.68
2022-08-01T10:02:33.114Z,14.65
2022-08-01T10:05:08.197Z,14.66
2022-08-01T10:07:43.616Z,14.77
2022-08-01T10:10:15.152Z,14.72
2022-08-01T10:12:45.432Z,14.80
2022-08-01T10:15:18.226Z,14.84
2022-08-01T10:17:54.691Z,14.87
2022-08-01T10:20:31.195Z,14.84
2022-08-01T10:23:05.907Z,15.01
2022-08-01T10:25:42.077Z,14.97
2022-08-01T10:28:18.146Z,14.86
2022-08-01T10:30:50.632Z,14.88
2022-08-01T10:33:51.865Z,14.92
2022-08-01T10:36:15.482Z,14.94
2022-08-01T10:38:45.729Z,14.84
2022-08-01T10:41:16.543Z,14.86
2022-08-01T10:43:46.992Z,14.94
2022-08-01T10:46:16.364Z,15.02
2022-08-01T10:48:57.173Z,15.08
2022-08-01T10:51:52.087Z,15.07
2022-08-01T10:54:19.143Z,15.07
2022-08-01T10:56:49.505Z,15.10
2022-08-01T10:59:50.260Z,15.08
2022-08-01T11:02:12.912Z,15.21
2022-08-01T11:04:53.003Z,15.27
2022-08-01T11:07:26.368Z,15.29
2022-08-01T11:10:14.678Z,15.30
2022-08-01T11:12:45.504Z,15.21
2022-08-01T11:15:29.258Z,15.24
2022-08-01T11:18:05.490Z,15.36
2022-08-01T11:20:42.292Z,15.35
2022-08-01T11:23:23.448Z,15.48
2022-08-01T11:26:12.854Z,15.47
2022-08-01T11:28:59.182Z,15.45
2022-08-01T11:31:37.463Z,15.56
2022-08-01T11:34:07.879Z,15.54
2022-08-01T11:36:58.511Z,15.51
2022-08-01T11:39:27.559Z,15.50
2022-08-01T11:41:56.759Z,15.50
2022-08-01T11:44:30.456Z,15.55
2022-08-01T11:47:09.937Z,15.54
2022-08-01T11:49:51.936Z,15.56
2022-08-01T11:52:26.898Z,15.44
2022-08-01T11:54:58.706Z,15.58
2022-08-01T11:57:34.060Z,15.58
2022-08-01T12:00:15.274Z,15.55
2022-08-01T12:02:47.456Z,15.69
2022-08-01T12:05:17.834Z,15.55
2022-08-01T12:07:47.717Z,15.72
2022-08-01T12:10:20.703Z,15.65
2022-08-01T12:12:51.565Z,15.73
2022-08-01T12:15:21.759Z,15.77
2022-08-01T12:17:57.598Z,15.69
2022-08-01T12:20:32.090Z,15.58
2022-08-01T12:23:02.595Z,15.73
2022-08-01T12:25:32.883Z,15.72
2022-08-01T12:28:03.445Z,15.69
2022-08-01T12:30:36.654Z,15.61
2022-08-01T12:33:06.444Z,15.80
2022-08-01T12:35:35.759Z,15.71
2022-08-01T12:38:06.697Z,15.75
2022-08-01T12:40:43.298Z,15.82
2022-08-01T12:43:26.775Z,15.90
2022-08-01T12:45:58.823Z,15.87
2022-08-01T12:48:28.422Z,15.87
2022-08-01T12:51:01.691Z,15.83
2022-08-01T12:53:40.241Z,15.87
2022-08-01T12:56:12.508Z,16.00
2022-08-01T12:58:41.944Z,16.05
2022-08-01T13:01:12.458Z,16.04
2022-08-01T13:03:41.641Z,16.06
2022-08-01T13:06:16.209Z,16.19
2022-08-01T13:08:46.820Z,16.10
2022-08-01T13:11:19.279Z,15.96
2022-08-01T13:13:49.872Z,16.04
2022-08-01T13:16:30.552Z,16.21
2022-08-01T13:19:10.480Z,16.26
2022-08-01T13:21:53.053Z,16.35
2022-08-01T13:24:28.416Z,16.37
2022-08-01T13:27:01.634Z,16.36
2022-08-01T13:29:43.099Z,16.25
2022-08-01T13:32:27.717Z,16.26
2022-08-01T13:35:04.302Z,16.33
2022-08-01T13:37:34.240Z,16.35
2022-08-01T13:40:02.964Z,16.36
2022-08-01T13:42:33.264Z,16.29
2022-08-01T13:45:03.077Z,16.45
2022-08-01T13:47:32.864Z,16.43
2022-08-01T13:50:04.016Z,16.54
2022-08-01T13:52:33.606Z,16.45
2022-08-01T13:55:03.009Z,16.52
2022-08-01T13:57:41.587Z,16.52
2022-08-01T14:00:13.079Z,16.71
2022-08-01T14:02:41.907Z,16.44
2022-08-01T14:05:11.246Z,16.70
2022-08-01T14:07:41.382Z,16.66
2022-08-01T14:10:18.947Z,16.61
2022-08-01T14:12:50.929Z,16.77
2022-08-01T14:15:37.694Z,16.53
2022-08-01T14:18:09.664Z,16.44
2022-08-01T14:20:40.203Z,16.54
2022-08-01T14:23:12.324Z,16.59
2022-08-01T14:26:00.826Z,16.76
2022-08-01T14:28:34.532Z,16.74
2022-08-01T14:31:03.328Z,16.65
2022-08-01T14:33:32.104Z,16.59
2022-08-01T14:36:28.513Z,16.60
2022-08-01T14:38:52.182Z,16.44
2022-08-01T14:41:21.346Z,16.52
2022-08-01T14:43:51.483Z,16.65
2022-08-01T14:46:20.225Z,16.53
2022-08-01T14:48:48.983Z,16.55
2022-08-01T14:51:17.681Z,16.63
2022-08-01T14:53:50.960Z,16.68
2022-08-01T14:56:22.145Z,16.68
2022-08-01T14:58:52.472Z,16.44
2022-08-01T15:01:21.368Z,16.51
2022-08-01T15:03:51.387Z,16.53
2022-08-01T15:06:20.530Z,16.52
2022-08-01T15:08:49.228Z,16.55
2022-08-01T15:11:17.993Z,16.49
2022-08-01T15:13:47.028Z,16.59
2022-08-01T15:16:17.324Z,16.53
2022-08-01T15:18:46.009Z,16.56
2022-08-01T15:21:34.322Z,16.43
2022-08-01T15:24:03.809Z,16.41
2022-08-01T15:26:32.432Z,16.34
2022-08-01T15:29:01.108Z,16.34
2022-08-01T15:31:31.379Z,16.39
2022-08-01T15:34:01.793Z,16.23
2022-08-01T15:36:30.861Z,16.24
2022-08-01T15:39:00.766Z,16.19
2022-08-01T15:41:29.659Z,16.21
2022-08-01T15:43:58.380Z,16.28
2022-08-01T15:46:27.227Z,16.31
2022-08-01T15:48:58.540Z,16.40
2022-08-01T15:51:27.751Z,16.27
2022-08-01T15:53:56.565Z,16.26
2022-08-01T15:56:25.365Z,16.18
2022-08-01T15:58:54.129Z,16.15
2022-08-01T16:01:23.041Z,16.07
2022-08-01T16:03:51.787Z,16.02
2022-08-01T16:06:22.189Z,16.06
2022-08-01T16:08:51.100Z,15.95
2022-08-01T16:11:20.140Z,15.99
2022-08-01T16:13:49.347Z,15.96
2022-08-01T16:16:18.127Z,15.95
2022-08-01T16:18:46.835Z,16.11
2022-08-01T16:21:25.600Z,16.02
2022-08-01T16:23:54.185Z,15.88
2022-08-01T16:26:28.197Z,15.88
2022-08-01T16:28:58.297Z,16.13
2022-08-01T16:31:47.339Z,15.85
2022-08-01T16:34:15.947Z,15.74
2022-08-01T16:36:46.111Z,15.84
2022-08-01T16:39:16.480Z,15.95
2022-08-01T16:41:48.389Z,15.96
2022-08-01T16:44:26.737Z,15.88
2022-08-01T16:47:03.337Z,15.83
2022-08-01T16:49:33.431Z,15.79
2022-08-01T16:52:05.863Z,15.69
2022-08-01T16:54:34.792Z,15.65
2022-08-01T16:57:07.758Z,15.58
2022-08-01T16:59:41.440Z,15.60
2022-08-01T17:02:12.021Z,15.48
2022-08-01T17:04:42.160Z,15.44
2022-08-01T17:07:12.260Z,15.45
2022-08-01T17:09:43.538Z,15.62
2022-08-01T17:12:18.179Z,15.60
2022-08-01T17:14:51.789Z,15.51
2022-08-01T17:17:20.817Z,15.59
2022-08-01T17:19:51.767Z,15.47
2022-08-01T17:22:23.468Z,15.52
2022-08-01T17:24:53.309Z,15.51
2022-08-01T17:27:22.508Z,15.59
2022-08-01T17:29:51.939Z,15.61
2022-08-01T17:32:21.386Z,15.61
2022-08-01T17:34:50.347Z,15.60
2022-08-01T17:37:19.121Z,15.46
2022-08-01T17:39:53.187Z,15.46
2022-08-01T17:42:22.446Z,15.58
2022-08-01T17:44:52.121Z,15.57
2022-08-01T17:47:48.021Z,15.46
2022-08-01T17:50:14.221Z,15.39
2022-08-01T17:52:45.466Z,15.39
2022-08-01T17:55:56.151Z,15.40
2022-08-01T17:58:07.384Z,15.43
2022-08-01T18:00:37.864Z,15.43
2022-08-01T18:03:08.823Z,15.35
2022-08-01T18:05:38.786Z,15.37
2022-08-01T18:08:08.127Z,15.34
2022-08-01T18:10:40.049Z,15.26
2022-08-01T18:13:09.305Z,15.24
2022-08-01T18:15:39.509Z,15.21
2022-08-01T18:18:08.986Z,15.17
2022-08-01T18:20:37.627Z,15.21
2022-08-01T18:23:10.265Z,15.12
2022-08-01T18:25:42.017Z,15.12
2022-08-01T18:28:29.352Z,15.11
2022-08-01T18:31:02.159Z,15.08
2022-08-01T18:33:31.660Z,15.15
2022-08-01T18:36:03.576Z,15.09
2022-08-01T18:38:35.235Z,15.10
2022-08-01T18:41:10.618Z,15.16
2022-08-01T18:43:39.665Z,15.10
2022-08-01T18:46:09.745Z,15.07
2022-08-01T18:48:39.208Z,15.04
2022-08-01T18:51:08.564Z,15.11
2022-08-01T18:53:42.085Z,15.13
2022-08-01T18:56:13.485Z,15.07
2022-08-01T18:58:43.266Z,15.05
2022-08-01T19:01:14.424Z,15.00
2022-08-01T19:03:44.286Z,14.96
2022-08-01T19:06:13.827Z,14.94
2022-08-01T19:08:43.008Z,14.93
2022-08-01T19:11:14.107Z,15.03
2022-08-01T19:13:43.604Z,15.02
2022-08-01T19:16:13.566Z,14.96
2022-08-01T19:18:43.387Z,14.94
2022-08-01T19:21:16.027Z,14.88
2022-08-01T19:24:02.567Z,14.84
2022-08-01T19:26:35.305Z,14.87
2022-08-01T19:29:13.366Z,14.84
2022-08-01T19:31:47.054Z,14.82
2022-08-01T19:34:19.309Z,14.85
2022-08-01T19:36:49.166Z,14.86
2022-08-01T19:39:23.808Z,14.86
2022-08-01T19:41:55.647Z,14.86
2022-08-01T19:44:26.904Z,14.80
2022-08-01T19:46:57.701Z,14.75
2022-08-01T19:49:26.861Z,14.79
2022-08-01T19:52:01.504Z,14.77
2022-08-01T19:54:35.506Z,14.90
2022-08-01T19:57:09.755Z,14.82
2022-08-01T19:59:38.765Z,14.91
2022-08-01T20:02:09.307Z,14.86
2022-08-01T20:04:38.986Z,14.79
2022-08-01T20:07:09.393Z,14.72
2022-08-01T20:09:44.242Z,14.72
2022-08-01T20:12:17.886Z,14.80
2022-08-01T20:14:50.978Z,14.86
2022-08-01T20:17:21.338Z,14.84
2022-08-01T20:19:50.860Z,14.73
2022-08-01T20:22:23.060Z,14.77
2022-08-01T20:24:59.199Z,14.60
2022-08-01T20:27:32.759Z,14.65
2022-08-01T20:30:02.364Z,14.71
2022-08-01T20:32:34.658Z,14.61
2022-08-01T20:35:05.259Z,14.55
2022-08-01T20:38:05.620Z,14.52
2022-08-01T20:40:28.103Z,14.49
2022-08-01T20:42:59.364Z,14.45
2022-08-01T20:45:28.545Z,14.43
2022-08-01T20:47:59.805Z,14.44
2022-08-01T20:50:54.191Z,14.43
2022-08-01T20:53:24.738Z,14.41
2022-08-01T20:55:59.999Z,14.43
2022-08-01T20:58:42.217Z,14.46
2022-08-01T21:01:13.676Z,14.42
2022-08-01T21:03:51.082Z,14.39
2022-08-01T21:06:26.881Z,14.37
2022-08-01T21:09:01.478Z,14.38
2022-08-01T21:11:40.003Z,14.35
2022-08-01T21:14:13.700Z,14.41
2022-08-01T21:16:46.838Z,14.38
2022-08-01T21:19:20.723Z,14.44
2022-08-01T21:21:52.819Z,14.43
2022-08-01T21:24:28.319Z,14.39
2022-08-01T21:26:59.120Z,14.41
2022-08-01T21:29:29.518Z,14.38
2022-08-01T21:32:13.520Z,14.38
2022-08-01T21:34:44.501Z,14.37
2022-08-01T21:37:16.946Z,14.37
2022-08-01T21:39:47.361Z,14.37
2022-08-01T21:42:19.157Z,14.35
2022-08-01T21:44:49.740Z,14.43
2022-08-01T21:47:19.359Z,14.35
2022-08-01T21:49:48.281Z,14.36
2022-08-01T21:52:21.697Z,14.32
2022-08-01T21:55:02.261Z,14.32
2022-08-01T21:57:42.698Z,14.31
2022-08-01T22:00:25.195Z,14.32
2022-08-01T22:03:04.144Z,14.31
2022-08-01T22:05:49.769Z,14.29
2022-08-01T22:08:26.402Z,14.31
2022-08-01T22:11:00.180Z,14.25
2022-08-01T22:13:29.243Z,14.27
2022-08-01T22:15:59.621Z,14.24
2022-08-01T22:18:28.818Z,14.25
2022-08-01T22:20:58.011Z,14.25
2022-08-01T22:23:26.704Z,14.24
2022-08-01T22:25:56.718Z,14.23
2022-08-01T22:28:25.770Z,14.24
2022-08-01T22:30:54.745Z,14.24
2022-08-01T22:33:26.182Z,14.24
2022-08-01T22:35:57.560Z,14.25
2022-08-01T22:38:26.268Z,14.25
2022-08-01T22:41:02.868Z,14.24
2022-08-01T22:43:39.599Z,14.22
2022-08-01T22:46:26.886Z,14.21
2022-08-01T22:49:03.164Z,14.20
2022-08-01T22:51:47.436Z,14.20
2022-08-01T22:54:29.353Z,14.20
2022-08-01T22:57:01.414Z,14.17
2022-08-01T22:59:43.824Z,14.18
2022-08-01T23:02:17.632Z,14.18
2022-08-01T23:04:49.543Z,14.18
2022-08-01T23:07:24.253Z,14.16
2022-08-01T23:09:55.252Z,14.15
2022-08-01T23:12:28.590Z,14.12
2022-08-01T23:14:58.627Z,14.14
2022-08-01T23:17:29.835Z,14.14
2022-08-01T23:20:02.088Z,14.13
2022-08-01T23:22:32.707Z,14.15
2022-08-01T23:25:05.199Z,14.14
2022-08-01T23:28:04.514Z,14.14
2022-08-01T23:30:26.215Z,14.14
2022-08-01T23:32:55.042Z,14.14
2022-08-01T23:35:25.273Z,14.15
2022-08-01T23:38:01.949Z,14.13
2022-08-01T23:40:33.438Z,14.13
2022-08-01T23:43:02.969Z,14.11
2022-08-01T23:46:02.038Z,14.10
2022-08-01T23:48:20.629Z,14.12
2022-08-01T23:50:50.603Z,14.13
2022-08-01T23:53:19.228Z,14.13
2022-08-01T23:55:49.457Z,14.11
2022-08-01T23:58:18.661Z,14.12
